createdAt,value
2022-09-13T00:01:31.982Z,62.28
2022-09-13T00:03:58.932Z,62.38
2022-09-13T00:06:25.875Z,62.72
2022-09-13T00:08:54.143Z,61.77
2022-09-13T00:11:27.239Z,62.04
2022-09-13T00:13:54.622Z,62.79
2022-09-13T00:16:25.305Z,62.36
2022-09-13T00:18:54.005Z,62.59
2022-09-13T00:21:23.217Z,62.62
2022-09-13T00:23:53.958Z,62.47
2022-09-13T00:26:25.347Z,62.59
2022-09-13T00:28:55.889Z,62.39
2022-09-13T00:31:24.460Z,62.73
2022-09-13T00:33:51.768Z,62.67
2022-09-13T00:36:18.977Z,62.33
2022-09-13T00:38:46.109Z,62.62
2022-09-13T00:41:19.022Z,62.27
2022-09-13T00:43:52.702Z,62.39
2022-09-13T00:46:46.727Z,62.01
2022-09-13T00:49:28.992Z,62.59
2022-09-13T00:52:01.810Z,62.73
2022-09-13T00:54:40.356Z,62.62
2022-09-13T00:57:10.699Z,62.92
2022-09-13T00:59:58.164Z,62.16
2022-09-13T01:02:25.978Z,62.85
2022-09-13T01:04:53.025Z,63.17
2022-09-13T01:07:20.047Z,63.36
2022-09-13T01:09:51.000Z,63.16
2022-09-13T01:12:40.492Z,62.62
2022-09-13T01:15:08.146Z,63.45
2022-09-13T01:17:36.196Z,63.21
2022-09-13T01:20:06.681Z,63.39
2022-09-13T01:22:48.398Z,62.99
2022-09-13T01:25:32.686Z,63.37
2022-09-13T01:28:26.735Z,63.25
2022-09-13T01:31:35.499Z,62.94
2022-09-13T01:34:48.124Z,62.79
2022-09-13T01:37:38.352Z,63.16
2022-09-13T01:40:40.706Z,63.55
2022-09-13T01:43:19.805Z,63.97
2022-09-13T01:46:33.611Z,63.73
2022-09-13T01:49:36.732Z,63.70
2022-09-13T01:52:30.431Z,63.93
2022-09-13T01:55:30.859Z,63.79
2022-09-13T01:58:23.965Z,63.89
2022-09-13T02:01:18.346Z,64.08
2022-09-13T02:04:13.161Z,63.79
2022-09-13T02:06:49.563Z,64.48
2022-09-13T02:09:23.004Z,64.20
2022-09-13T02:12:02.675Z,64.13
2022-09-13T02:14:38.552Z,64.36
2022-09-13T02:17:17.174Z,64.18
2022-09-13T02:20:05.061Z,63.77
2022-09-13T02:22:39.190Z,64.65
2022-09-13T02:25:13.743Z,64.75
2022-09-13T02:27:45.043Z,64.81
2022-09-13T02:30:14.346Z,64.77
2022-09-13T02:33:04.210Z,64.05
2022-09-13T02:35:53.864Z,64.00
2022-09-13T02:38:33.708Z,64.12
2022-09-13T02:41:17.903Z,64.17
2022-09-13T02:43:52.435Z,64.62
2022-09-13T02:47:06.647Z,64.06
2022-09-13T02:50:21.646Z,63.60
2022-09-13T02:53:14.899Z,64.04
2022-09-13T02:56:10.933Z,64.02
2022-09-13T02:58:48.771Z,64.40
2022-09-13T03:01:15.867Z,65.42
2022-09-13T03:03:43.734Z,65.06
2022-09-13T03:06:10.972Z,65.05
2022-09-13T03:08:38.099Z,65.53
2022-09-13T03:11:38.583Z,63.89
2022-09-13T03:14:20.353Z,64.69
2022-09-13T03:17:10.943Z,64.43
2022-09-13T03:20:18.454Z,64.28
2022-09-13T03:23:12.973Z,64.20
2022-09-13T03:26:02.933Z,64.15
2022-09-13T03:28:47.326Z,64.76
2022-09-13T03:31:29.848Z,64.80
2022-09-13T03:34:15.144Z,65.11
2022-09-13T03:36:58.326Z,64.89
2022-09-13T03:39:42.798Z,64.68
2022-09-13T03:42:38.315Z,64.49
2022-09-13T03:45:08.211Z,65.46
2022-09-13T03:47:40.081Z,65.48
2022-09-13T03:50:08.988Z,65.69
2022-09-13T03:52:36.980Z,65.73
2022-09-13T03:55:04.220Z,65.72
2022-09-13T03:57:31.172Z,65.93
2022-09-13T03:59:58.375Z,66.29
2022-09-13T04:02:28.310Z,66.60
2022-09-13T04:04:56.252Z,66.16
2022-09-13T04:07:26.004Z,66.31
2022-09-13T04:09:52.973Z,66.36
2022-09-13T04:12:20.185Z,66.21
2022-09-13T04:14:47.285Z,66.67
2022-09-13T04:17:14.767Z,66.51
2022-09-13T04:19:42.417Z,66.50
2022-09-13T04:22:09.505Z,66.26
2022-09-13T04:24:36.492Z,66.49
2022-09-13T04:27:03.879Z,66.82
2022-09-13T04:29:31.761Z,66.73
2022-09-13T04:31:59.868Z,66.68
2022-09-13T04:34:26.857Z,66.62
2022-09-13T04:36:54.638Z,66.79
2022-09-13T04:39:22.390Z,66.39
2022-09-13T04:41:52.025Z,67.16
2022-09-13T04:44:19.093Z,66.87
2022-09-13T04:46:49.307Z,66.60
2022-09-13T04:49:17.632Z,66.63
2022-09-13T04:51:44.606Z,66.71
2022-09-13T04:54:15.647Z,67.60
2022-09-13T04:56:45.401Z,67.03
2022-09-13T04:59:12.855Z,66.82
2022-09-13T05:01:40.345Z,67.15
2022-09-13T05:04:07.958Z,67.39
2022-09-13T05:06:35.026Z,67.62
2022-09-13T05:09:02.895Z,67.60
2022-09-13T05:11:30.532Z,68.09
2022-09-13T05:13:59.912Z,68.01
2022-09-13T05:16:30.559Z,67.96
2022-09-13T05:18:58.256Z,68.12
2022-09-13T05:21:27.732Z,68.33
2022-09-13T05:23:56.676Z,68.12
2022-09-13T05:26:26.799Z,68.11
2022-09-13T05:28:53.714Z,68.70
2022-09-13T05:31:30.906Z,67.84
2022-09-13T05:34:19.443Z,67.44
2022-09-13T05:36:51.672Z,68.14
2022-09-13T05:39:39.453Z,68.25
2022-09-13T05:42:09.075Z,68.13
2022-09-13T05:44:37.054Z,68.45
2022-09-13T05:47:04.132Z,68.10
2022-09-13T05:49:31.367Z,68.18
2022-09-13T05:51:58.275Z,68.43
2022-09-13T05:54:25.219Z,68.50
2022-09-13T05:56:54.165Z,68.35
2022-09-13T05:59:21.127Z,68.30
2022-09-13T06:01:48.610Z,68.36
2022-09-13T06:04:15.662Z,68.31
2022-09-13T06:06:42.559Z,68.59
2022-09-13T06:09:12.005Z,68.81
2022-09-13T06:11:39.002Z,68.91
2022-09-13T06:14:05.905Z,68.39
2022-09-13T06:16:32.982Z,68.93
2022-09-13T06:19:00.095Z,69.09
2022-09-13T06:21:29.370Z,68.87
2022-09-13T06:23:56.863Z,69.08
2022-09-13T06:26:28.066Z,69.41
2022-09-13T06:28:58.036Z,69.27
2022-09-13T06:31:27.755Z,69.88
2022-09-13T06:34:02.437Z,69.50
2022-09-13T06:36:29.827Z,69.27
2022-09-13T06:38:57.128Z,69.40
2022-09-13T06:41:26.267Z,69.29
2022-09-13T06:43:59.524Z,69.37
2022-09-13T06:46:29.871Z,69.51
2022-09-13T06:49:04.843Z,68.88
2022-09-13T06:51:33.348Z,69.47
2022-09-13T06:54:01.371Z,69.63
2022-09-13T06:56:34.686Z,69.25
2022-09-13T06:59:05.517Z,69.30
2022-09-13T07:01:38.848Z,69.45
2022-09-13T07:04:10.058Z,69.38
2022-09-13T07:06:40.817Z,69.52
2022-09-13T07:09:09.856Z,68.62
2022-09-13T07:11:40.248Z,69.68
2022-09-13T07:14:08.105Z,70.00
2022-09-13T07:16:38.267Z,69.80
2022-09-13T07:19:11.463Z,69.75
2022-09-13T07:21:38.526Z,69.53
2022-09-13T07:24:05.757Z,69.40
2022-09-13T07:26:33.288Z,69.96
2022-09-13T07:29:03.479Z,69.74
2022-09-13T07:31:35.423Z,69.68
2022-09-13T07:34:06.887Z,69.68
2022-09-13T07:36:36.207Z,69.91
2022-09-13T07:39:05.059Z,69.94
2022-09-13T07:41:33.653Z,70.19
2022-09-13T07:44:01.708Z,69.80
2022-09-13T07:46:33.989Z,70.00
2022-09-13T07:49:01.992Z,69.69
2022-09-13T07:51:32.698Z,69.92
2022-09-13T07:54:02.247Z,68.99
2022-09-13T07:56:35.456Z,69.83
2022-09-13T07:59:05.738Z,70.05
2022-09-13T08:01:45.557Z,69.66
2022-09-13T08:04:17.840Z,70.58
2022-09-13T08:06:46.337Z,70.65
2022-09-13T08:09:14.580Z,70.75
2022-09-13T08:11:48.578Z,70.33
2022-09-13T08:14:18.500Z,70.57
2022-09-13T08:16:45.948Z,70.54
2022-09-13T08:19:17.055Z,70.13
2022-09-13T08:21:45.031Z,70.12
2022-09-13T08:24:23.820Z,70.10
2022-09-13T08:26:52.125Z,70.49
2022-09-13T08:29:19.639Z,70.30
2022-09-13T08:31:47.062Z,70.34
2022-09-13T08:34:15.773Z,70.39
2022-09-13T08:36:43.515Z,69.93
2022-09-13T08:39:14.737Z,70.46
2022-09-13T08:41:46.441Z,70.56
2022-09-13T08:44:39.395Z,70.33
2022-09-13T08:47:47.372Z,69.32
2022-09-13T08:50:26.151Z,70.40
2022-09-13T08:53:17.608Z,70.60
2022-09-13T08:56:29.448Z,70.84
2022-09-13T08:59:35.950Z,70.50
2022-09-13T09:02:34.324Z,70.18
2022-09-13T09:05:31.151Z,70.80
2022-09-13T09:08:12.148Z,70.71
2022-09-13T09:10:50.864Z,69.75
2022-09-13T09:13:43.391Z,69.16
2022-09-13T09:16:38.919Z,70.62
2022-09-13T09:19:35.143Z,68.99
2022-09-13T09:22:16.155Z,70.55
2022-09-13T09:24:48.691Z,70.10
2022-09-13T09:27:19.220Z,70.37
2022-09-13T09:29:51.326Z,70.05
2022-09-13T09:33:02.298Z,70.48
2022-09-13T09:35:54.234Z,70.51
2022-09-13T09:38:42.785Z,70.90
2022-09-13T09:41:25.647Z,70.66
2022-09-13T09:44:20.661Z,70.60
2022-09-13T09:47:06.579Z,70.50
2022-09-13T09:50:07.201Z,69.57
2022-09-13T09:52:56.671Z,69.25
2022-09-13T09:55:34.383Z,70.49
2022-09-13T09:58:08.731Z,70.28
2022-09-13T10:00:54.748Z,69.45
2022-09-13T10:03:31.721Z,70.68
2022-09-13T10:06:28.302Z,70.20
2022-09-13T10:09:03.586Z,70.55
2022-09-13T10:11:50.360Z,71.01
2022-09-13T10:14:44.414Z,70.94
2022-09-13T10:17:21.786Z,70.94
2022-09-13T10:20:20.023Z,71.16
2022-09-13T10:23:13.888Z,71.38
2022-09-13T10:25:47.804Z,69.68
2022-09-13T10:28:19.169Z,69.91
2022-09-13T10:31:12.834Z,70.31
2022-09-13T10:34:15.822Z,70.17
2022-09-13T10:37:17.713Z,69.25
2022-09-13T10:40:04.489Z,70.11
2022-09-13T10:42:31.561Z,69.07
2022-09-13T10:45:19.370Z,69.34
2022-09-13T10:47:50.342Z,67.78
2022-09-13T10:50:27.374Z,68.89
2022-09-13T10:52:57.662Z,68.44
2022-09-13T10:55:26.729Z,70.41
2022-09-13T10:58:14.130Z,70.44
2022-09-13T11:01:17.310Z,69.29
2022-09-13T11:04:25.545Z,70.80
2022-09-13T11:07:06.633Z,69.73
2022-09-13T11:10:11.704Z,70.47
2022-09-13T11:13:00.213Z,70.37
2022-09-13T11:15:36.718Z,69.91
2022-09-13T11:18:51.282Z,70.21
2022-09-13T11:21:33.274Z,69.12
2022-09-13T11:24:22.517Z,69.60
2022-09-13T11:27:09.228Z,68.60
2022-09-13T11:30:04.712Z,69.22
2022-09-13T11:32:59.753Z,69.90
2022-09-13T11:35:54.491Z,69.45
2022-09-13T11:38:54.330Z,69.94
2022-09-13T11:41:40.312Z,69.72
2022-09-13T11:44:45.939Z,69.64
2022-09-13T11:47:28.246Z,69.64
2022-09-13T11:50:19.691Z,69.71
2022-09-13T11:53:52.568Z,70.17
2022-09-13T11:56:32.217Z,69.89
2022-09-13T11:59:34.667Z,70.03
2022-09-13T12:02:12.834Z,69.87
2022-09-13T12:05:04.949Z,70.19
2022-09-13T12:07:46.217Z,69.44
2022-09-13T12:10:27.411Z,70.18
2022-09-13T12:12:56.592Z,69.00
2022-09-13T12:15:37.835Z,69.58
2022-09-13T12:18:22.770Z,69.35
2022-09-13T12:20:59.370Z,68.02
2022-09-13T12:23:36.915Z,68.74
2022-09-13T12:26:30.347Z,69.62
2022-09-13T12:29:27.172Z,67.08
2022-09-13T12:32:05.733Z,68.17
2022-09-13T12:34:39.071Z,65.97
2022-09-13T12:37:29.721Z,67.52
2022-09-13T12:40:09.712Z,65.65
2022-09-13T12:43:21.631Z,63.59
2022-09-13T12:46:08.248Z,67.31
2022-09-13T12:49:08.836Z,68.00
2022-09-13T12:52:22.581Z,68.24
2022-09-13T12:55:47.190Z,68.03
2022-09-13T12:59:04.315Z,65.81
2022-09-13T13:01:33.505Z,65.70
2022-09-13T13:04:27.683Z,67.53
2022-09-13T13:07:06.771Z,67.09
2022-09-13T13:09:43.298Z,67.18
2022-09-13T13:12:33.373Z,67.29
2022-09-13T13:15:08.083Z,66.71
2022-09-13T13:17:47.051Z,66.40
2022-09-13T13:20:55.527Z,65.50
2022-09-13T13:23:41.075Z,67.26
2022-09-13T13:26:32.323Z,67.04
2022-09-13T13:29:32.397Z,66.07
2022-09-13T13:32:07.991Z,65.24
2022-09-13T13:34:52.929Z,66.60
2022-09-13T13:37:19.700Z,65.62
2022-09-13T13:40:08.544Z,66.03
2022-09-13T13:42:38.335Z,66.39
2022-09-13T13:45:26.520Z,68.37
2022-09-13T13:47:54.905Z,66.83
2022-09-13T13:50:22.069Z,65.73
2022-09-13T13:52:55.400Z,65.45
2022-09-13T13:55:47.382Z,68.17
2022-09-13T13:58:47.100Z,67.73
2022-09-13T14:01:24.627Z,66.36
2022-09-13T14:04:35.385Z,67.96
2022-09-13T14:07:19.498Z,67.08
2022-09-13T14:10:22.016Z,68.24
2022-09-13T14:13:21.819Z,63.54
2022-09-13T14:16:17.450Z,67.25
2022-09-13T14:19:06.891Z,66.77
2022-09-13T14:21:34.191Z,65.60
2022-09-13T14:24:24.733Z,67.09
2022-09-13T14:26:57.796Z,65.97
2022-09-13T14:29:28.586Z,65.78
2022-09-13T14:32:07.084Z,67.33
2022-09-13T14:34:38.743Z,65.56
2022-09-13T14:37:17.759Z,65.49
2022-09-13T14:39:57.774Z,66.63
2022-09-13T14:42:25.014Z,64.85
2022-09-13T14:44:52.495Z,63.02
2022-09-13T14:47:39.434Z,66.00
2022-09-13T14:50:15.209Z,65.98
2022-09-13T14:52:53.250Z,64.90
2022-09-13T14:55:36.875Z,66.32
2022-09-13T14:58:08.954Z,64.65
2022-09-13T15:00:50.687Z,64.56
2022-09-13T15:03:19.803Z,63.08
2022-09-13T15:06:01.462Z,65.50
2022-09-13T15:08:42.620Z,63.04
2022-09-13T15:11:17.067Z,62.94
2022-09-13T15:13:44.313Z,62.09
2022-09-13T15:16:34.128Z,64.70
2022-09-13T15:19:31.794Z,63.57
2022-09-13T15:22:31.434Z,62.95
2022-09-13T15:25:01.020Z,61.16
2022-09-13T15:27:47.378Z,62.97
2022-09-13T15:30:41.364Z,59.66
2022-09-13T15:33:11.485Z,61.01
2022-09-13T15:35:41.409Z,60.59
2022-09-13T15:38:37.909Z,62.05
2022-09-13T15:41:21.738Z,62.36
2022-09-13T15:43:49.055Z,59.78
2022-09-13T15:46:17.147Z,59.20
2022-09-13T15:49:05.811Z,61.52
2022-09-13T15:51:38.157Z,59.36
2022-09-13T15:54:13.420Z,60.29
2022-09-13T15:56:51.371Z,59.42
2022-09-13T15:59:21.566Z,59.25
2022-09-13T16:01:51.015Z,60.13
2022-09-13T16:04:18.958Z,59.44
2022-09-13T16:06:46.554Z,58.84
2022-09-13T16:09:19.145Z,59.35
2022-09-13T16:11:47.425Z,59.69
2022-09-13T16:14:14.917Z,59.29
2022-09-13T16:16:42.359Z,58.35
2022-09-13T16:19:17.459Z,59.22
2022-09-13T16:21:44.807Z,58.34
2022-09-13T16:24:12.004Z,58.55
2022-09-13T16:26:39.798Z,58.16
2022-09-13T16:29:06.886Z,58.70
2022-09-13T16:31:34.326Z,58.65
2022-09-13T16:34:01.364Z,58.20
2022-09-13T16:36:28.902Z,58.13
2022-09-13T16:38:56.902Z,58.44
2022-09-13T16:41:24.266Z,58.10
2022-09-13T16:43:51.314Z,57.85
2022-09-13T16:46:18.372Z,58.60
2022-09-13T16:48:45.575Z,57.71
2022-09-13T16:51:13.192Z,58.41
2022-09-13T16:53:42.391Z,57.79
2022-09-13T16:56:13.058Z,58.41
2022-09-13T16:58:43.043Z,58.12
2022-09-13T17:01:13.233Z,58.39
2022-09-13T17:03:40.481Z,58.39
2022-09-13T17:06:10.702Z,57.91
2022-09-13T17:08:39.575Z,57.37
2022-09-13T17:11:09.421Z,58.60
2022-09-13T17:13:38.205Z,57.58
2022-09-13T17:16:08.008Z,58.58
2022-09-13T17:18:34.941Z,58.35
2022-09-13T17:21:01.929Z,58.48
2022-09-13T17:23:28.860Z,58.81
2022-09-13T17:25:55.833Z,58.80
2022-09-13T17:28:22.860Z,59.27
2022-09-13T17:30:49.842Z,59.60
2022-09-13T17:33:16.803Z,59.86
2022-09-13T17:35:43.769Z,60.05
2022-09-13T17:38:11.619Z,59.95
2022-09-13T17:40:38.575Z,60.04
2022-09-13T17:43:05.474Z,60.03
2022-09-13T17:45:32.691Z,60.15
2022-09-13T17:47:59.680Z,60.24
2022-09-13T17:50:26.847Z,59.92
2022-09-13T17:52:53.774Z,60.30
2022-09-13T17:55:20.759Z,60.14
2022-09-13T17:57:50.815Z,60.57
2022-09-13T18:00:19.707Z,60.55
2022-09-13T18:02:47.036Z,60.49
2022-09-13T18:05:14.131Z,60.67
2022-09-13T18:07:41.129Z,60.64
2022-09-13T18:10:25.433Z,60.75
2022-09-13T18:12:55.447Z,60.85
2022-09-13T18:15:22.393Z,60.86
2022-09-13T18:17:49.322Z,60.92
2022-09-13T18:20:16.287Z,60.86
2022-09-13T18:22:43.243Z,60.63
2022-09-13T18:25:10.202Z,60.40
2022-09-13T18:27:37.272Z,60.48
2022-09-13T18:30:07.080Z,60.43
2022-09-13T18:32:34.016Z,60.60
2022-09-13T18:35:02.003Z,60.80
2022-09-13T18:37:31.530Z,61.13
2022-09-13T18:39:58.785Z,61.11
2022-09-13T18:42:27.547Z,61.07
2022-09-13T18:44:56.055Z,60.55
2022-09-13T18:47:23.046Z,61.17
2022-09-13T18:49:49.990Z,61.39
2022-09-13T18:52:16.966Z,61.30
2022-09-13T18:54:43.923Z,61.20
2022-09-13T18:57:10.908Z,61.35
2022-09-13T18:59:37.829Z,61.20
2022-09-13T19:02:04.992Z,61.35
2022-09-13T19:04:33.445Z,61.23
2022-09-13T19:07:02.328Z,61.37
2022-09-13T19:09:30.296Z,61.34
2022-09-13T19:12:00.184Z,61.42
2022-09-13T19:14:28.533Z,61.45
2022-09-13T19:17:00.358Z,61.39
2022-09-13T19:19:27.739Z,61.51
2022-09-13T19:21:54.857Z,61.43
2022-09-13T19:24:22.187Z,61.56
2022-09-13T19:26:51.804Z,61.42
2022-09-13T19:29:21.985Z,61.69
2022-09-13T19:31:53.058Z,61.79
2022-09-13T19:34:22.450Z,61.76
2022-09-13T19:36:52.569Z,61.86
2022-09-13T19:39:27.019Z,61.47
2022-09-13T19:41:56.564Z,61.70
2022-09-13T19:44:24.012Z,61.67
2022-09-13T19:47:06.926Z,61.44
2022-09-13T19:49:38.480Z,61.62
2022-09-13T19:52:05.415Z,61.53
2022-09-13T19:54:32.551Z,61.95
2022-09-13T19:57:00.400Z,61.52
2022-09-13T19:59:27.394Z,61.73
2022-09-13T20:01:54.608Z,62.12
2022-09-13T20:04:23.608Z,62.21
2022-09-13T20:06:52.030Z,62.55
2022-09-13T20:09:21.101Z,62.40
2022-09-13T20:11:49.127Z,62.58
2022-09-13T20:14:19.335Z,62.62
2022-09-13T20:16:47.861Z,62.61
2022-09-13T20:22:10.234Z,62.65
2022-09-13T20:24:37.431Z,62.57
2022-09-13T20:27:04.593Z,62.64
2022-09-13T20:29:31.748Z,62.60
2022-09-13T20:31:59.720Z,62.94
2022-09-13T20:34:27.129Z,62.57
2022-09-13T20:36:54.088Z,62.90
2022-09-13T20:39:21.051Z,62.59
2022-09-13T20:41:51.898Z,62.64
2022-09-13T20:44:18.938Z,62.62
2022-09-13T20:46:45.935Z,62.84
2022-09-13T20:49:13.849Z,62.91
2022-09-13T20:51:40.777Z,62.87
2022-09-13T20:54:08.237Z,63.01
2022-09-13T20:56:36.244Z,62.93
2022-09-13T20:59:05.018Z,62.90
2022-09-13T21:01:33.689Z,63.35
2022-09-13T21:04:01.185Z,63.28
2022-09-13T21:06:38.790Z,63.12
2022-09-13T21:09:06.335Z,63.50
2022-09-13T21:11:36.428Z,63.45
2022-09-13T21:14:07.090Z,63.18
2022-09-13T21:16:41.159Z,63.29
2022-09-13T21:19:09.045Z,63.33
2022-09-13T21:21:39.961Z,63.20
2022-09-13T21:24:11.340Z,63.42
2022-09-13T21:26:42.086Z,63.19
2022-09-13T21:29:11.268Z,63.33
2022-09-13T21:31:38.632Z,63.34
2022-09-13T21:34:11.939Z,63.33
2022-09-13T21:36:39.223Z,63.33
2022-09-13T21:39:06.706Z,63.51
2022-09-13T21:41:33.896Z,63.34
2022-09-13T21:44:01.008Z,63.30
2022-09-13T21:46:34.937Z,62.86
2022-09-13T21:49:05.595Z,63.29
2022-09-13T21:51:54.283Z,62.70
2022-09-13T21:54:21.326Z,63.13
2022-09-13T21:56:54.095Z,63.30
2022-09-13T21:59:22.844Z,63.52
2022-09-13T22:01:51.651Z,63.12
2022-09-13T22:04:22.246Z,63.02
2022-09-13T22:06:53.757Z,62.50
2022-09-13T22:09:27.030Z,63.25
2022-09-13T22:11:54.973Z,63.32
2022-09-13T22:14:22.310Z,62.75
2022-09-13T22:16:50.850Z,62.93
2022-09-13T22:19:25.870Z,63.03
2022-09-13T22:21:59.519Z,63.02
2022-09-13T22:24:32.085Z,63.34
2022-09-13T22:26:59.555Z,62.89
2022-09-13T22:29:27.291Z,62.26
2022-09-13T22:31:54.929Z,62.40
2022-09-13T22:34:24.878Z,62.66
2022-09-13T22:36:55.148Z,62.66
2022-09-13T22:39:23.931Z,62.74
2022-09-13T22:41:50.947Z,62.55
2022-09-13T22:44:17.940Z,62.47
2022-09-13T22:46:46.650Z,62.53
2022-09-13T22:49:18.847Z,62.53
2022-09-13T22:51:47.249Z,62.39
2022-09-13T22:54:16.427Z,62.84
2022-09-13T22:56:43.481Z,62.72
2022-09-13T22:59:17.293Z,62.73
2022-09-13T23:01:44.845Z,62.85
2022-09-13T23:04:12.711Z,63.04
2022-09-13T23:06:40.280Z,62.85
2022-09-13T23:09:08.615Z,62.98
2022-09-13T23:11:40.037Z,62.64
2022-09-13T23:14:10.443Z,62.50
2022-09-13T23:16:44.402Z,62.81
2022-09-13T23:19:13.510Z,63.01
2022-09-13T23:21:41.041Z,62.63
2022-09-13T23:24:15.988Z,62.98
2022-09-13T23:26:44.464Z,63.02
2022-09-13T23:29:20.097Z,63.02
2022-09-13T23:31:48.317Z,62.98
2022-09-13T23:34:16.342Z,62.90
2022-09-13T23:36:44.648Z,62.99
2022-09-13T23:39:18.622Z,62.58
2022-09-13T23:41:48.283Z,63.14
2022-09-13T23:44:16.185Z,63.13
2022-09-13T23:46:43.527Z,63.46
2022-09-13T23:49:10.572Z,63.65
2022-09-13T23:51:37.566Z,63.51
2022-09-13T23:54:04.868Z,63.32
2022-09-13T23:56:32.925Z,63.42
2022-09-13T23:59:02.080Z,63.53
